createdAt,value
2023-03-08T00:01:52.016Z,14.50
2023-03-08T00:04:18.671Z,16.60
2023-03-08T00:06:45.267Z,11.53
2023-03-08T00:09:11.895Z,13.00
2023-03-08T00:11:38.344Z,12.57
2023-03-08T00:14:04.840Z,10.70
2023-03-08T00:16:31.348Z,21.23
2023-03-08T00:18:57.880Z,12.97
2023-03-08T00:21:24.422Z,8.77
2023-03-08T00:23:50.988Z,8.20
2023-03-08T00:26:17.516Z,16.60
2023-03-08T00:28:44.047Z,13.73
2023-03-08T00:31:10.637Z,13.60
2023-03-08T00:33:37.188Z,13.50
2023-03-08T00:36:03.676Z,15.23
2023-03-08T00:38:30.159Z,13.87
2023-03-08T00:40:56.660Z,11.90
2023-03-08T00:43:23.161Z,13.20
2023-03-08T00:45:52.917Z,12.37
2023-03-08T00:48:19.748Z,10.73
2023-03-08T00:50:46.249Z,9.93
2023-03-08T00:53:12.774Z,16.67
2023-03-08T00:55:39.321Z,11.40
2023-03-08T00:58:09.435Z,15.17
2023-03-08T01:00:35.943Z,12.77
2023-03-08T01:03:02.469Z,13.23
2023-03-08T01:05:29.004Z,12.80
2023-03-08T01:07:55.471Z,14.57
2023-03-08T01:10:22.026Z,13.97
2023-03-08T01:12:48.494Z,12.30
2023-03-08T01:15:14.966Z,15.33
2023-03-08T01:17:41.636Z,11.17
2023-03-08T01:20:08.433Z,17.77
2023-03-08T01:22:34.967Z,9.53
2023-03-08T01:25:01.481Z,13.10
2023-03-08T01:27:27.999Z,11.40
2023-03-08T01:29:54.492Z,11.17
2023-03-08T01:32:20.992Z,11.90
2023-03-08T01:34:47.507Z,15.63
2023-03-08T01:37:13.999Z,14.83
2023-03-08T01:39:40.494Z,13.40
2023-03-08T01:42:07.662Z,10.23
2023-03-08T01:44:34.180Z,9.27
2023-03-08T01:47:00.686Z,13.03
2023-03-08T01:49:27.178Z,8.37
2023-03-08T01:51:53.666Z,11.43
2023-03-08T01:54:20.174Z,14.90
2023-03-08T01:56:46.678Z,12.37
2023-03-08T01:59:13.493Z,14.90
2023-03-08T02:01:40.052Z,11.27
2023-03-08T02:04:06.543Z,12.13
2023-03-08T02:06:33.060Z,9.70
2023-03-08T02:09:03.510Z,10.40
2023-03-08T02:11:30.030Z,10.33
2023-03-08T02:13:56.575Z,12.60
2023-03-08T02:16:23.091Z,12.10
2023-03-08T02:18:49.621Z,13.80
2023-03-08T02:21:16.165Z,10.30
2023-03-08T02:23:42.695Z,10.80
2023-03-08T02:26:09.176Z,11.57
2023-03-08T02:28:35.689Z,11.73
2023-03-08T02:31:02.312Z,11.43
2023-03-08T02:33:30.425Z,13.37
2023-03-08T02:35:57.091Z,12.20
2023-03-08T02:38:23.641Z,14.33
2023-03-08T02:40:53.370Z,14.80
2023-03-08T02:43:19.989Z,15.00
2023-03-08T02:45:46.539Z,16.67
2023-03-08T02:48:13.054Z,10.63
2023-03-08T02:50:39.574Z,13.93
2023-03-08T02:53:06.067Z,14.63
2023-03-08T02:55:35.965Z,13.30
2023-03-08T02:58:02.445Z,15.80
2023-03-08T03:00:28.974Z,17.50
2023-03-08T03:02:55.463Z,15.13
2023-03-08T03:05:21.961Z,15.47
2023-03-08T03:07:48.437Z,12.97
2023-03-08T03:10:14.931Z,19.07
2023-03-08T03:12:41.513Z,17.10
2023-03-08T03:15:08.021Z,16.60
2023-03-08T03:17:34.558Z,18.57
2023-03-08T03:20:01.067Z,28.53
2023-03-08T03:22:27.540Z,22.53
2023-03-08T03:24:54.060Z,20.37
2023-03-08T03:27:20.528Z,19.07
2023-03-08T03:29:47.041Z,18.57
2023-03-08T03:32:13.586Z,23.80
2023-03-08T03:34:40.084Z,25.10
2023-03-08T03:37:06.595Z,19.57
2023-03-08T03:39:34.830Z,16.07
2023-03-08T03:42:01.416Z,17.73
2023-03-08T03:44:27.903Z,23.77
2023-03-08T03:46:54.417Z,17.40
2023-03-08T03:49:20.940Z,17.40
2023-03-08T03:51:47.432Z,20.87
2023-03-08T03:54:13.927Z,17.70
2023-03-08T03:56:42.832Z,19.63
2023-03-08T03:59:09.291Z,22.73
2023-03-08T04:01:35.799Z,22.57
2023-03-08T04:04:02.343Z,20.50
2023-03-08T04:06:28.853Z,19.73
2023-03-08T04:08:55.344Z,20.00
2023-03-08T04:11:21.872Z,16.70
2023-03-08T04:13:48.561Z,16.57
2023-03-08T04:16:15.106Z,16.90
2023-03-08T04:18:41.618Z,17.50
2023-03-08T04:21:08.144Z,22.33
2023-03-08T04:23:34.616Z,17.50
2023-03-08T04:26:01.157Z,18.50
2023-03-08T04:28:27.632Z,19.27
2023-03-08T04:30:54.170Z,16.80
2023-03-08T04:33:20.633Z,13.50
2023-03-08T04:35:47.161Z,16.77
2023-03-08T04:38:13.832Z,20.77
2023-03-08T04:40:59.217Z,20.17
2023-03-08T04:43:25.695Z,19.10
2023-03-08T04:45:52.185Z,19.70
2023-03-08T04:48:18.713Z,23.77
2023-03-08T04:50:45.192Z,15.57
2023-03-08T04:53:11.745Z,22.63
2023-03-08T04:55:38.289Z,25.10
2023-03-08T04:58:05.009Z,32.53
2023-03-08T05:00:31.518Z,23.03
2023-03-08T05:02:57.996Z,23.57
2023-03-08T05:05:24.458Z,18.30
2023-03-08T05:07:50.919Z,24.57
2023-03-08T05:10:17.416Z,18.23
2023-03-08T05:12:44.997Z,20.63
2023-03-08T05:15:11.532Z,22.93
2023-03-08T05:17:38.017Z,19.73
2023-03-08T05:20:04.504Z,20.37
2023-03-08T05:22:30.988Z,21.67
2023-03-08T05:24:57.825Z,22.77
2023-03-08T05:27:24.470Z,21.70
2023-03-08T05:29:50.943Z,24.47
2023-03-08T05:32:17.495Z,24.97
2023-03-08T05:34:43.978Z,20.53
2023-03-08T05:37:10.566Z,23.67
2023-03-08T05:39:37.023Z,18.73
2023-03-08T05:42:03.550Z,14.93
2023-03-08T05:44:30.018Z,17.27
2023-03-08T05:46:56.486Z,16.87
2023-03-08T05:49:22.986Z,17.53
2023-03-08T05:51:49.477Z,18.83
2023-03-08T05:54:15.939Z,20.07
2023-03-08T05:56:42.476Z,22.57
2023-03-08T05:59:08.947Z,21.67
2023-03-08T06:01:35.484Z,16.80
2023-03-08T06:04:01.974Z,14.43
2023-03-08T06:06:28.555Z,12.10
2023-03-08T06:08:56.195Z,8.93
2023-03-08T06:11:22.750Z,14.70
2023-03-08T06:13:49.273Z,8.67
2023-03-08T06:16:15.926Z,13.53
2023-03-08T06:18:42.623Z,15.20
2023-03-08T06:21:09.101Z,10.60
2023-03-08T06:23:35.617Z,9.60
2023-03-08T06:26:02.193Z,7.97
2023-03-08T06:28:28.701Z,4.87
2023-03-08T06:30:55.287Z,7.23
2023-03-08T06:33:21.815Z,4.33
2023-03-08T06:35:48.360Z,2.20
2023-03-08T06:38:14.892Z,4.00
2023-03-08T06:40:41.388Z,4.07
2023-03-08T06:43:07.886Z,3.07
2023-03-08T06:45:34.366Z,3.90
2023-03-08T06:48:00.888Z,5.93
2023-03-08T06:50:27.460Z,10.33
2023-03-08T06:52:53.999Z,4.43
2023-03-08T06:55:20.521Z,8.17
2023-03-08T06:57:47.067Z,3.53
2023-03-08T07:00:13.599Z,4.77
2023-03-08T07:02:40.205Z,3.00
2023-03-08T07:05:06.718Z,2.23
2023-03-08T07:07:33.376Z,4.70
2023-03-08T07:09:59.974Z,3.90
2023-03-08T07:12:26.509Z,2.80
2023-03-08T07:14:53.288Z,2.03
2023-03-08T07:17:19.828Z,3.93
2023-03-08T07:19:46.308Z,3.87
2023-03-08T07:22:12.908Z,1.77
2023-03-08T07:24:39.430Z,13.63
2023-03-08T07:27:06.078Z,3.50
2023-03-08T07:29:32.579Z,5.83
2023-03-08T07:31:59.125Z,2.90
2023-03-08T07:34:25.612Z,5.40
2023-03-08T07:36:52.271Z,2.83
2023-03-08T07:39:18.803Z,5.87
2023-03-08T07:41:47.410Z,5.93
2023-03-08T07:44:14.076Z,5.87
2023-03-08T07:46:40.609Z,3.37
2023-03-08T07:49:10.474Z,4.73
2023-03-08T07:51:37.148Z,3.23
2023-03-08T07:54:03.710Z,3.57
2023-03-08T07:56:30.397Z,2.50
2023-03-08T07:58:57.366Z,4.73
2023-03-08T08:01:23.847Z,2.00
2023-03-08T08:03:50.374Z,3.63
2023-03-08T08:06:17.207Z,4.60
2023-03-08T08:08:43.720Z,2.17
2023-03-08T08:11:10.206Z,2.57
2023-03-08T08:13:36.686Z,1.40
2023-03-08T08:16:03.279Z,2.50
2023-03-08T08:18:29.820Z,1.07
2023-03-08T08:20:56.307Z,2.63
2023-03-08T08:23:24.003Z,1.30
2023-03-08T08:25:50.490Z,1.40
2023-03-08T08:28:17.144Z,1.63
2023-03-08T08:30:43.626Z,1.95
2023-03-08T08:33:10.185Z,2.17
2023-03-08T08:35:43.001Z,1.53
2023-03-08T08:38:09.995Z,2.20
2023-03-08T08:40:36.537Z,1.93
2023-03-08T08:43:03.082Z,2.38
2023-03-08T08:45:29.630Z,3.07
2023-03-08T08:47:56.155Z,4.33
2023-03-08T08:50:22.643Z,1.00
2023-03-08T08:52:49.211Z,1.60
2023-03-08T08:55:15.733Z,1.77
2023-03-08T08:57:42.214Z,1.87
2023-03-08T09:00:09.815Z,1.93
2023-03-08T09:02:36.463Z,1.40
2023-03-08T09:05:03.553Z,2.07
2023-03-08T09:07:30.083Z,1.67
2023-03-08T09:09:56.634Z,2.37
2023-03-08T09:12:23.125Z,3.90
2023-03-08T09:14:49.629Z,1.30
2023-03-08T09:17:16.113Z,2.17
2023-03-08T09:19:42.692Z,1.70
2023-03-08T09:22:09.288Z,2.83
2023-03-08T09:24:35.796Z,5.57
2023-03-08T09:27:02.270Z,2.13
2023-03-08T09:29:28.789Z,2.03
2023-03-08T09:31:56.709Z,2.22
2023-03-08T09:34:24.234Z,2.60
2023-03-08T09:36:50.827Z,5.73
2023-03-08T09:39:17.403Z,1.70
2023-03-08T09:41:43.957Z,1.40
2023-03-08T09:44:10.502Z,4.40
2023-03-08T09:46:37.024Z,2.50
2023-03-08T09:49:06.532Z,1.93
2023-03-08T09:51:33.022Z,2.63
2023-03-08T09:53:59.687Z,1.93
2023-03-08T09:56:27.693Z,3.70
2023-03-08T09:58:54.187Z,1.50
2023-03-08T10:01:20.676Z,7.80
2023-03-08T10:03:47.169Z,2.40
2023-03-08T10:06:13.722Z,2.93
2023-03-08T10:08:40.338Z,7.00
2023-03-08T10:11:07.502Z,3.67
2023-03-08T10:13:34.049Z,2.33
2023-03-08T10:16:00.531Z,3.93
2023-03-08T10:18:27.614Z,3.37
2023-03-08T10:20:54.091Z,3.40
2023-03-08T10:23:20.674Z,11.40
2023-03-08T10:25:47.196Z,3.13
2023-03-08T10:28:13.776Z,2.37
2023-03-08T10:30:40.386Z,1.73
2023-03-08T10:33:06.915Z,2.67
2023-03-08T10:35:33.513Z,2.40
2023-03-08T10:38:00.073Z,2.67
2023-03-08T10:40:26.640Z,4.70
2023-03-08T10:42:59.795Z,5.33
2023-03-08T10:45:27.810Z,2.80
2023-03-08T10:47:54.319Z,3.23
2023-03-08T10:50:20.868Z,5.50
2023-03-08T10:52:47.423Z,22.17
2023-03-08T10:55:14.002Z,15.43
2023-03-08T10:57:40.516Z,9.83
2023-03-08T11:00:13.465Z,11.43
2023-03-08T11:02:39.980Z,10.50
2023-03-08T11:05:06.522Z,5.27
2023-03-08T11:07:33.068Z,4.77
2023-03-08T11:09:59.560Z,4.13
2023-03-08T11:12:26.114Z,2.27
2023-03-08T11:14:52.769Z,2.00
2023-03-08T11:17:19.929Z,1.80
2023-03-08T11:19:46.526Z,3.07
2023-03-08T11:22:13.110Z,4.10
2023-03-08T11:24:39.851Z,2.17
2023-03-08T11:27:06.451Z,3.27
2023-03-08T11:29:32.949Z,3.67
2023-03-08T11:31:59.482Z,2.70
2023-03-08T11:34:25.962Z,3.40
2023-03-08T11:36:52.500Z,3.77
2023-03-08T11:39:22.047Z,5.40
2023-03-08T11:41:48.755Z,3.93
2023-03-08T11:44:15.630Z,4.20
2023-03-08T11:46:42.241Z,8.90
2023-03-08T11:49:10.711Z,4.87
2023-03-08T11:51:37.223Z,6.17
2023-03-08T11:54:03.752Z,8.47
2023-03-08T11:56:30.604Z,6.90
2023-03-08T11:58:57.108Z,4.33
2023-03-08T12:01:23.651Z,5.67
2023-03-08T12:03:55.484Z,13.32
2023-03-08T12:06:28.643Z,4.90
2023-03-08T12:08:55.960Z,6.90
2023-03-08T12:11:22.569Z,4.47
2023-03-08T12:13:49.047Z,3.40
2023-03-08T12:16:15.946Z,9.90
2023-03-08T12:18:42.462Z,8.70
2023-03-08T12:21:09.174Z,4.27
2023-03-08T12:23:35.691Z,5.33
2023-03-08T12:26:02.210Z,8.47
2023-03-08T12:28:28.723Z,5.60
2023-03-08T12:30:55.324Z,6.93
2023-03-08T12:33:22.013Z,6.87
2023-03-08T12:35:48.711Z,5.37
2023-03-08T12:38:15.353Z,5.10
2023-03-08T12:40:41.979Z,11.83
2023-03-08T12:43:08.615Z,7.27
2023-03-08T12:45:35.165Z,8.43
2023-03-08T12:48:01.907Z,13.90
2023-03-08T12:50:28.471Z,9.47
2023-03-08T12:52:56.388Z,8.67
2023-03-08T12:55:23.147Z,8.97
2023-03-08T12:57:49.749Z,7.27
2023-03-08T13:00:16.229Z,9.70
2023-03-08T13:02:42.726Z,11.73
2023-03-08T13:05:09.286Z,8.23
2023-03-08T13:07:35.808Z,10.23
2023-03-08T13:10:02.346Z,7.27
2023-03-08T13:12:28.902Z,9.00
2023-03-08T13:14:55.495Z,10.70
2023-03-08T13:17:22.024Z,11.90
2023-03-08T13:19:49.807Z,10.80
2023-03-08T13:22:16.394Z,15.03
2023-03-08T13:24:43.013Z,10.33
2023-03-08T13:27:09.512Z,12.27
2023-03-08T13:29:36.032Z,8.27
2023-03-08T13:32:02.554Z,9.77
2023-03-08T13:34:29.160Z,10.30
2023-03-08T13:36:55.737Z,9.87
2023-03-08T13:39:22.240Z,11.20
2023-03-08T13:41:48.754Z,10.23
2023-03-08T13:44:15.266Z,12.57
2023-03-08T13:46:42.990Z,7.50
2023-03-08T13:49:09.701Z,8.70
2023-03-08T13:51:36.180Z,12.70
2023-03-08T13:54:02.678Z,11.07
2023-03-08T13:56:29.231Z,20.73
2023-03-08T13:58:55.918Z,12.50
2023-03-08T14:01:22.577Z,9.87
2023-03-08T14:03:49.131Z,12.03
2023-03-08T14:06:15.684Z,11.27
2023-03-08T14:08:42.214Z,18.90
2023-03-08T14:11:08.732Z,9.40
2023-03-08T14:13:35.211Z,15.87
2023-03-08T14:16:01.877Z,15.40
2023-03-08T14:18:28.488Z,16.30
2023-03-08T14:20:55.064Z,14.13
2023-03-08T14:23:21.624Z,13.17
2023-03-08T14:25:48.103Z,13.57
2023-03-08T14:28:14.591Z,15.40
2023-03-08T14:30:41.189Z,12.43
2023-03-08T14:33:08.032Z,12.53
2023-03-08T14:35:34.649Z,14.50
2023-03-08T14:38:01.142Z,11.30
2023-03-08T14:40:27.634Z,10.10
2023-03-08T14:42:54.146Z,14.70
2023-03-08T14:45:20.690Z,16.10
2023-03-08T14:47:47.315Z,16.87
2023-03-08T14:50:13.796Z,15.60
2023-03-08T14:52:40.288Z,20.83
2023-03-08T14:55:06.762Z,22.73
2023-03-08T14:57:33.906Z,15.80
2023-03-08T15:00:00.442Z,12.37
2023-03-08T15:02:26.936Z,14.73
2023-03-08T15:04:53.409Z,12.57
2023-03-08T15:07:20.045Z,12.37
2023-03-08T15:09:46.558Z,15.50
2023-03-08T15:12:13.717Z,10.83
2023-03-08T15:14:40.202Z,12.87
2023-03-08T15:17:06.692Z,17.90
2023-03-08T15:19:33.179Z,11.73
2023-03-08T15:22:01.477Z,14.10
2023-03-08T15:24:27.999Z,12.83
2023-03-08T15:26:55.712Z,11.40
2023-03-08T15:29:22.193Z,9.20
2023-03-08T15:31:48.670Z,12.10
2023-03-08T15:34:15.159Z,11.37
2023-03-08T15:36:41.739Z,15.17
2023-03-08T15:39:08.214Z,7.70
2023-03-08T15:41:34.737Z,7.83
2023-03-08T15:44:01.209Z,8.30
2023-03-08T15:46:28.484Z,11.90
2023-03-08T15:48:55.025Z,8.57
2023-03-08T15:51:21.551Z,9.30
2023-03-08T15:53:48.221Z,8.80
2023-03-08T15:56:14.701Z,7.97
2023-03-08T15:58:41.344Z,13.60
2023-03-08T16:01:07.919Z,10.10
2023-03-08T16:03:34.991Z,12.67
2023-03-08T16:06:01.527Z,6.93
2023-03-08T16:08:28.837Z,13.73
2023-03-08T16:10:55.326Z,10.00
2023-03-08T16:13:22.083Z,10.40
2023-03-08T16:15:49.138Z,9.00
2023-03-08T16:18:15.691Z,15.63
2023-03-08T16:20:42.255Z,17.30
2023-03-08T16:23:08.882Z,16.20
2023-03-08T16:25:35.428Z,11.90
2023-03-08T16:28:01.934Z,33.30
2023-03-08T16:30:28.472Z,59.20
2023-03-08T16:32:54.976Z,20.20
2023-03-08T16:35:21.504Z,20.17
2023-03-08T16:37:48.058Z,16.90
2023-03-08T16:40:15.405Z,14.70
2023-03-08T16:42:41.927Z,16.20
2023-03-08T16:45:08.501Z,19.00
2023-03-08T16:47:35.029Z,15.27
2023-03-08T16:50:01.966Z,16.07
2023-03-08T16:52:28.463Z,16.07
2023-03-08T16:54:54.962Z,19.27
2023-03-08T16:57:21.735Z,15.60
2023-03-08T16:59:48.292Z,14.03
2023-03-08T17:02:14.908Z,13.77
2023-03-08T17:04:41.403Z,16.87
2023-03-08T17:07:08.359Z,14.67
2023-03-08T17:09:34.919Z,14.43
2023-03-08T17:12:01.467Z,16.63
2023-03-08T17:14:27.992Z,13.23
2023-03-08T17:16:54.508Z,12.90
2023-03-08T17:19:20.989Z,12.27
2023-03-08T17:21:47.520Z,11.97
2023-03-08T17:24:14.064Z,13.27
2023-03-08T17:26:40.581Z,15.67
2023-03-08T17:29:07.076Z,14.30
2023-03-08T17:31:33.600Z,12.80
2023-03-08T17:34:00.155Z,15.70
2023-03-08T17:36:26.788Z,17.83
2023-03-08T17:38:53.498Z,18.20
2023-03-08T17:41:20.259Z,20.83
2023-03-08T17:43:46.744Z,17.47
2023-03-08T17:46:13.283Z,21.50
2023-03-08T17:48:39.839Z,20.93
2023-03-08T17:51:06.383Z,16.90
2023-03-08T17:53:32.901Z,20.87
2023-03-08T17:56:02.519Z,41.17
2023-03-08T17:58:29.002Z,18.10
2023-03-08T18:00:55.488Z,19.23
2023-03-08T18:03:21.991Z,21.03
2023-03-08T18:05:48.730Z,79.60
2023-03-08T18:08:15.502Z,81.07
2023-03-08T18:10:41.998Z,23.77
2023-03-08T18:13:08.470Z,29.27
2023-03-08T18:15:35.033Z,28.03
2023-03-08T18:18:01.587Z,28.27
2023-03-08T18:20:29.576Z,23.90
2023-03-08T18:22:56.029Z,15.33
2023-03-08T18:25:22.705Z,21.63
2023-03-08T18:27:49.286Z,19.50
2023-03-08T18:30:15.759Z,19.90
2023-03-08T18:32:42.265Z,20.30
2023-03-08T18:35:08.906Z,33.20
2023-03-08T18:37:35.426Z,25.07
2023-03-08T18:40:02.052Z,19.47
2023-03-08T18:42:28.606Z,18.03
2023-03-08T18:44:55.118Z,38.67
2023-03-08T18:47:21.579Z,18.50
2023-03-08T18:49:48.323Z,17.17
2023-03-08T18:52:14.981Z,22.83
2023-03-08T18:54:41.529Z,16.83
2023-03-08T18:57:08.024Z,19.93
2023-03-08T18:59:34.966Z,20.80
2023-03-08T19:02:01.564Z,18.23
2023-03-08T19:04:28.134Z,20.53
2023-03-08T19:06:54.681Z,22.47
2023-03-08T19:09:22.056Z,16.37
2023-03-08T19:11:48.702Z,17.93
2023-03-08T19:14:15.176Z,17.77
2023-03-08T19:16:41.768Z,21.10
2023-03-08T19:19:08.765Z,17.20
2023-03-08T19:21:35.340Z,17.03
2023-03-08T19:24:01.881Z,20.80
2023-03-08T19:26:37.553Z,22.63
2023-03-08T19:29:04.192Z,17.67
2023-03-08T19:31:30.813Z,18.30
2023-03-08T19:33:57.311Z,19.50
2023-03-08T19:36:23.814Z,27.03
2023-03-08T19:38:50.322Z,24.17
2023-03-08T19:41:16.920Z,30.67
2023-03-08T19:43:43.557Z,30.00
2023-03-08T19:46:10.208Z,23.27
2023-03-08T19:48:36.753Z,24.63
2023-03-08T19:51:06.294Z,32.57
2023-03-08T19:53:32.840Z,33.27
2023-03-08T19:55:59.413Z,26.30
2023-03-08T19:58:25.905Z,24.47
2023-03-08T20:00:52.470Z,25.50
2023-03-08T20:03:18.986Z,27.90
2023-03-08T20:05:45.588Z,25.03
2023-03-08T20:08:12.436Z,23.20
2023-03-08T20:10:38.936Z,19.53
2023-03-08T20:13:05.420Z,19.80
2023-03-08T20:15:32.265Z,15.10
2023-03-08T20:17:58.815Z,17.13
2023-03-08T20:20:25.280Z,14.80
2023-03-08T20:22:51.866Z,17.23
2023-03-08T20:25:20.729Z,19.47
2023-03-08T20:27:47.209Z,15.23
2023-03-08T20:30:13.755Z,15.87
2023-03-08T20:32:40.338Z,16.77
2023-03-08T20:35:06.829Z,21.67
2023-03-08T20:37:33.312Z,17.00
2023-03-08T20:39:59.868Z,16.63
2023-03-08T20:42:26.561Z,13.43
2023-03-08T20:44:53.047Z,19.73
2023-03-08T20:47:19.565Z,14.53
2023-03-08T20:49:46.140Z,18.93
2023-03-08T20:52:15.629Z,16.93
2023-03-08T20:54:43.226Z,16.30
2023-03-08T20:57:09.731Z,21.87
2023-03-08T20:59:36.226Z,16.70
2023-03-08T21:02:02.711Z,12.30
2023-03-08T21:04:29.272Z,13.70
2023-03-08T21:06:55.813Z,14.60
2023-03-08T21:09:22.518Z,15.83
2023-03-08T21:11:49.205Z,10.60
2023-03-08T21:14:15.733Z,17.80
2023-03-08T21:16:42.846Z,14.17
2023-03-08T21:19:09.422Z,14.87
2023-03-08T21:21:36.002Z,18.20
2023-03-08T21:24:02.567Z,13.43
2023-03-08T21:26:29.057Z,14.87
2023-03-08T21:28:55.705Z,13.80
2023-03-08T21:31:22.371Z,21.17
2023-03-08T21:33:48.914Z,17.07
2023-03-08T21:36:15.478Z,18.13
2023-03-08T21:38:41.958Z,15.23
2023-03-08T21:41:08.458Z,17.47
2023-03-08T21:43:35.052Z,16.33
2023-03-08T21:46:01.545Z,14.53
2023-03-08T21:48:28.040Z,17.87
2023-03-08T21:50:54.519Z,14.17
2023-03-08T21:53:21.026Z,13.37
2023-03-08T21:55:47.539Z,19.60
2023-03-08T21:58:14.063Z,23.30
2023-03-08T22:00:40.547Z,23.83
2023-03-08T22:03:07.115Z,18.20
2023-03-08T22:05:34.211Z,19.83
2023-03-08T22:08:00.714Z,25.03
2023-03-08T22:10:27.260Z,23.07
2023-03-08T22:12:53.805Z,27.83
2023-03-08T22:15:20.319Z,25.70
2023-03-08T22:17:46.812Z,30.57
2023-03-08T22:20:13.412Z,28.13
2023-03-08T22:22:39.937Z,29.20
2023-03-08T22:25:06.562Z,27.73
2023-03-08T22:27:33.246Z,32.07
2023-03-08T22:29:59.973Z,25.37
2023-03-08T22:32:26.672Z,21.67
2023-03-08T22:34:53.181Z,23.47
2023-03-08T22:37:19.790Z,22.33
2023-03-08T22:39:46.271Z,21.43
2023-03-08T22:42:13.091Z,21.63
2023-03-08T22:44:40.726Z,23.60
2023-03-08T22:47:07.418Z,21.20
2023-03-08T22:49:34.383Z,24.07
2023-03-08T22:52:00.931Z,19.83
2023-03-08T22:54:27.421Z,15.83
2023-03-08T22:56:54.661Z,19.97
2023-03-08T22:59:21.239Z,17.20
2023-03-08T23:01:47.830Z,19.10
2023-03-08T23:04:14.501Z,20.47
2023-03-08T23:06:41.025Z,21.20
2023-03-08T23:09:07.595Z,28.20
2023-03-08T23:11:34.076Z,17.10
2023-03-08T23:14:00.671Z,17.13
2023-03-08T23:16:27.227Z,14.40
2023-03-08T23:18:53.768Z,17.83
2023-03-08T23:21:20.288Z,17.60
2023-03-08T23:23:46.833Z,18.93
2023-03-08T23:26:13.349Z,19.10
2023-03-08T23:28:39.853Z,14.80
2023-03-08T23:31:06.848Z,20.90
2023-03-08T23:33:33.349Z,14.67
2023-03-08T23:35:59.897Z,16.93
2023-03-08T23:38:26.374Z,19.57
2023-03-08T23:40:52.861Z,19.80
2023-03-08T23:43:19.397Z,19.63
2023-03-08T23:45:46.063Z,15.73
2023-03-08T23:48:12.673Z,17.90
2023-03-08T23:50:39.256Z,15.90
2023-03-08T23:53:05.714Z,15.60
2023-03-08T23:55:32.187Z,18.07
2023-03-08T23:57:58.714Z,16.97
